createdAt,value
2023-04-12T00:00:10.373Z,84.94
2023-04-12T00:02:38.961Z,85.27
2023-04-12T00:05:09.697Z,86.33
2023-04-12T00:07:38.374Z,86.53
2023-04-12T00:10:07.972Z,86.75
2023-04-12T00:12:35.645Z,86.79
2023-04-12T00:15:03.308Z,87.20
2023-04-12T00:17:32.463Z,88.35
2023-04-12T00:20:00.214Z,88.60
2023-04-12T00:22:28.477Z,89.52
2023-04-12T00:24:56.046Z,90.19
2023-04-12T00:27:23.801Z,90.66
2023-04-12T00:29:51.377Z,90.22
2023-04-12T00:32:19.003Z,90.58
2023-04-12T00:34:48.122Z,90.14
2023-04-12T00:37:15.789Z,90.63
2023-04-12T00:39:43.361Z,89.92
2023-04-12T00:42:10.935Z,90.81
2023-04-12T00:44:38.539Z,90.96
2023-04-12T00:47:06.900Z,91.10
2023-04-12T00:49:35.105Z,92.17
2023-04-12T00:52:06.248Z,93.57
2023-04-12T00:54:34.715Z,95.13
2023-04-12T00:57:02.790Z,94.80
2023-04-12T00:59:30.935Z,94.92
2023-04-12T01:01:58.779Z,96.25
2023-04-12T01:04:27.231Z,95.82
2023-04-12T01:07:06.518Z,97.78
2023-04-12T01:09:39.425Z,98.75
2023-04-12T01:12:10.145Z,100.00
2023-04-12T01:14:44.741Z,99.46
2023-04-12T01:17:17.216Z,100.00
2023-04-12T01:19:57.723Z,100.00
2023-04-12T01:22:39.406Z,100.00
2023-04-12T01:25:24.148Z,100.00
2023-04-12T01:27:55.761Z,100.00
2023-04-12T01:30:24.376Z,100.00
2023-04-12T01:32:52.715Z,100.00
2023-04-12T01:35:21.925Z,100.00
2023-04-12T01:37:49.633Z,100.00
2023-04-12T01:40:19.250Z,100.00
2023-04-12T01:42:46.941Z,100.00
2023-04-12T01:45:16.051Z,100.00
2023-04-12T01:47:43.702Z,100.00
2023-04-12T01:50:17.748Z,100.00
2023-04-12T01:52:50.879Z,100.00
2023-04-12T01:55:20.641Z,100.00
2023-04-12T01:57:49.198Z,100.00
2023-04-12T02:00:19.417Z,100.00
2023-04-12T02:02:47.251Z,100.00
2023-04-12T02:05:15.193Z,100.00
2023-04-12T02:07:42.992Z,100.00
2023-04-12T02:10:14.545Z,100.00
2023-04-12T02:12:42.150Z,100.00
2023-04-12T02:15:10.274Z,100.00
2023-04-12T02:17:40.861Z,100.00
2023-04-12T02:20:11.826Z,100.00
2023-04-12T02:22:39.465Z,100.00
2023-04-12T02:25:07.790Z,100.00
2023-04-12T02:27:35.391Z,100.00
2023-04-12T02:30:05.065Z,100.00
2023-04-12T02:32:32.839Z,100.00
2023-04-12T02:35:02.776Z,100.00
2023-04-12T02:37:30.443Z,100.00
2023-04-12T02:39:58.953Z,100.00
2023-04-12T02:42:26.538Z,100.00
2023-04-12T02:44:54.081Z,100.00
2023-04-12T02:47:21.654Z,100.00
2023-04-12T02:49:49.278Z,100.00
2023-04-12T02:52:18.622Z,100.00
2023-04-12T02:54:46.239Z,100.00
2023-04-12T02:57:13.879Z,100.00
2023-04-12T02:59:41.487Z,100.00
2023-04-12T03:02:09.241Z,100.00
2023-04-12T03:04:39.853Z,100.00
2023-04-12T03:07:07.772Z,100.00
2023-04-12T03:09:38.549Z,100.00
2023-04-12T03:12:06.824Z,100.00
2023-04-12T03:14:34.497Z,100.00
2023-04-12T03:17:02.104Z,100.00
2023-04-12T03:19:32.866Z,100.00
2023-04-12T03:22:00.508Z,100.00
2023-04-12T03:24:28.689Z,100.00
2023-04-12T03:26:58.137Z,100.00
2023-04-12T03:29:25.769Z,100.00
2023-04-12T03:31:53.363Z,100.00
2023-04-12T03:34:20.938Z,100.00
2023-04-12T03:36:48.563Z,100.00
2023-04-12T03:39:16.324Z,100.00
2023-04-12T03:41:44.033Z,100.00
2023-04-12T03:44:13.042Z,100.00
2023-04-12T03:46:40.790Z,100.00
2023-04-12T03:49:08.481Z,100.00
2023-04-12T03:51:36.304Z,100.00
2023-04-12T03:54:04.407Z,100.00
2023-04-12T03:56:32.216Z,100.00
2023-04-12T03:58:59.861Z,100.00
2023-04-12T04:01:29.055Z,100.00
2023-04-12T04:03:57.362Z,100.00
2023-04-12T04:06:25.638Z,100.00
2023-04-12T04:08:53.304Z,100.00
2023-04-12T04:11:20.885Z,100.00
2023-04-12T04:13:48.483Z,100.00
2023-04-12T04:16:16.224Z,100.00
2023-04-12T04:18:45.607Z,100.00
2023-04-12T04:21:14.239Z,100.00
2023-04-12T04:23:44.872Z,100.00
2023-04-12T04:26:13.889Z,100.00
2023-04-12T04:28:45.101Z,100.00
2023-04-12T04:31:13.379Z,100.00
2023-04-12T04:33:41.817Z,100.00
2023-04-12T04:36:12.626Z,100.00
2023-04-12T04:38:40.544Z,100.00
2023-04-12T04:41:10.325Z,100.00
2023-04-12T04:43:39.914Z,100.00
2023-04-12T04:46:08.066Z,100.00
2023-04-12T04:48:36.412Z,100.00
2023-04-12T04:51:04.042Z,100.00
2023-04-12T04:53:33.151Z,100.00
2023-04-12T04:56:01.336Z,100.00
2023-04-12T04:58:29.121Z,100.00
2023-04-12T05:00:58.244Z,100.00
2023-04-12T05:03:30.293Z,100.00
2023-04-12T05:05:58.496Z,100.00
2023-04-12T05:08:26.510Z,100.00
2023-04-12T05:10:56.454Z,100.00
2023-04-12T05:13:24.214Z,100.00
2023-04-12T05:15:51.903Z,100.00
2023-04-12T05:18:19.502Z,100.00
2023-04-12T05:20:48.336Z,100.00
2023-04-12T05:23:17.382Z,100.00
2023-04-12T05:25:48.298Z,100.00
2023-04-12T05:28:17.985Z,100.00
2023-04-12T05:30:46.217Z,100.00
2023-04-12T05:33:14.439Z,100.00
2023-04-12T05:35:42.232Z,100.00
2023-04-12T05:38:10.093Z,100.00
2023-04-12T05:40:38.640Z,100.00
2023-04-12T05:43:06.490Z,100.00
2023-04-12T05:45:35.464Z,100.00
2023-04-12T05:48:03.253Z,100.00
2023-04-12T05:50:30.961Z,100.00
2023-04-12T05:52:58.898Z,100.00
2023-04-12T05:55:26.758Z,100.00
2023-04-12T05:57:54.433Z,100.00
2023-04-12T06:00:23.429Z,100.00
2023-04-12T06:02:52.780Z,100.00
2023-04-12T06:05:20.934Z,100.00
2023-04-12T06:07:48.919Z,100.00
2023-04-12T06:10:17.945Z,100.00
2023-04-12T06:12:46.210Z,100.00
2023-04-12T06:15:13.910Z,100.00
2023-04-12T06:17:41.598Z,100.00
2023-04-12T06:20:12.405Z,100.00
2023-04-12T06:22:40.062Z,100.00
2023-04-12T06:25:09.223Z,100.00
2023-04-12T06:27:37.121Z,100.00
2023-04-12T06:30:05.332Z,100.00
2023-04-12T06:32:33.063Z,100.00
2023-04-12T06:35:01.119Z,100.00
2023-04-12T06:37:30.276Z,100.00
2023-04-12T06:39:57.882Z,100.00
2023-04-12T06:42:25.563Z,100.00
2023-04-12T06:44:53.303Z,100.00
2023-04-12T06:47:22.843Z,100.00
2023-04-12T06:49:53.241Z,100.00
2023-04-12T06:52:25.141Z,100.00
2023-04-12T06:54:54.298Z,100.00
2023-04-12T06:57:21.972Z,100.00
2023-04-12T06:59:49.605Z,100.00
2023-04-12T07:02:17.467Z,100.00
2023-04-12T07:04:45.371Z,100.00
2023-04-12T07:07:13.433Z,100.00
2023-04-12T07:09:41.262Z,100.00
2023-04-12T07:12:10.339Z,100.00
2023-04-12T07:14:38.107Z,100.00
2023-04-12T07:17:05.782Z,100.00
2023-04-12T07:19:33.634Z,100.00
2023-04-12T07:22:01.396Z,100.00
2023-04-12T07:24:29.087Z,100.00
2023-04-12T07:26:56.697Z,100.00
2023-04-12T07:29:26.078Z,100.00
2023-04-12T07:31:53.699Z,100.00
2023-04-12T07:34:21.605Z,100.00
2023-04-12T07:36:49.470Z,100.00
2023-04-12T07:39:17.262Z,100.00
2023-04-12T07:41:46.435Z,100.00
2023-04-12T07:44:16.011Z,100.00
2023-04-12T07:46:46.207Z,100.00
2023-04-12T07:49:14.046Z,100.00
2023-04-12T07:51:42.398Z,100.00
2023-04-12T07:54:10.311Z,100.00
2023-04-12T07:56:38.044Z,100.00
2023-04-12T07:59:06.011Z,100.00
2023-04-12T08:01:33.874Z,100.00
2023-04-12T08:04:03.306Z,100.00
2023-04-12T08:06:33.699Z,100.00
2023-04-12T08:09:01.997Z,100.00
2023-04-12T08:11:29.700Z,100.00
2023-04-12T08:13:57.754Z,100.00
2023-04-12T08:16:25.904Z,100.00
2023-04-12T08:18:53.753Z,100.00
2023-04-12T08:21:22.830Z,100.00
2023-04-12T08:23:50.853Z,100.00
2023-04-12T08:26:18.477Z,100.00
2023-04-12T08:28:46.060Z,100.00
2023-04-12T08:31:13.792Z,100.00
2023-04-12T08:33:41.669Z,100.00
2023-04-12T08:36:10.305Z,100.00
2023-04-12T08:38:45.646Z,100.00
2023-04-12T08:41:15.155Z,100.00
2023-04-12T08:43:46.156Z,100.00
2023-04-12T08:46:16.386Z,100.00
2023-04-12T08:48:46.233Z,100.00
2023-04-12T08:51:15.592Z,100.00
2023-04-12T08:53:46.668Z,100.00
2023-04-12T08:56:15.770Z,100.00
2023-04-12T08:58:46.617Z,100.00
2023-04-12T09:01:15.697Z,100.00
2023-04-12T09:03:44.343Z,100.00
2023-04-12T09:06:12.910Z,100.00
2023-04-12T09:08:54.267Z,100.00
2023-04-12T09:11:27.111Z,100.00
2023-04-12T09:13:56.124Z,100.00
2023-04-12T09:16:37.783Z,100.00
2023-04-12T09:19:06.090Z,100.00
2023-04-12T09:21:34.609Z,100.00
2023-04-12T09:24:12.298Z,100.00
2023-04-12T09:26:41.745Z,100.00
2023-04-12T09:29:23.250Z,100.00
2023-04-12T09:31:57.091Z,100.00
2023-04-12T09:34:26.623Z,100.00
2023-04-12T09:36:55.617Z,100.00
2023-04-12T09:39:33.909Z,100.00
2023-04-12T09:42:18.067Z,100.00
2023-04-12T09:44:53.421Z,100.00
2023-04-12T09:47:21.458Z,100.00
2023-04-12T09:49:49.352Z,100.00
2023-04-12T09:52:17.040Z,100.00
2023-04-12T09:54:48.429Z,100.00
2023-04-12T09:57:18.707Z,100.00
2023-04-12T09:59:50.030Z,100.00
2023-04-12T10:02:19.042Z,100.00
2023-04-12T10:04:48.806Z,100.00
2023-04-12T10:07:16.772Z,100.00
2023-04-12T10:09:46.052Z,100.00
2023-04-12T10:12:13.668Z,100.00
2023-04-12T10:14:43.234Z,100.00
2023-04-12T10:17:12.222Z,100.00
2023-04-12T10:19:40.760Z,100.00
2023-04-12T10:22:08.453Z,100.00
2023-04-12T10:24:36.339Z,100.00
2023-04-12T10:27:05.531Z,100.00
2023-04-12T10:29:36.220Z,100.00
2023-04-12T10:32:19.392Z,100.00
2023-04-12T10:34:51.740Z,100.00
2023-04-12T10:37:19.386Z,100.00
2023-04-12T10:39:53.355Z,100.00
2023-04-12T10:42:24.728Z,100.00
2023-04-12T10:44:54.664Z,100.00
2023-04-12T10:48:01.559Z,100.00
2023-04-12T10:50:30.656Z,100.00
2023-04-12T10:53:26.870Z,100.00
2023-04-12T10:55:54.614Z,100.00
2023-04-12T10:59:03.337Z,100.00
2023-04-12T11:01:31.635Z,100.00
2023-04-12T11:04:14.247Z,100.00
2023-04-12T11:06:59.140Z,100.00
2023-04-12T11:09:28.445Z,100.00
2023-04-12T11:12:00.238Z,100.00
2023-04-12T11:14:35.779Z,100.00
2023-04-12T11:17:25.934Z,100.00
2023-04-12T11:19:58.461Z,100.00
2023-04-12T11:22:28.689Z,100.00
2023-04-12T11:24:57.861Z,100.00
2023-04-12T11:27:26.682Z,100.00
2023-04-12T11:29:57.364Z,100.00
2023-04-12T11:32:27.692Z,100.00
2023-04-12T11:34:56.948Z,100.00
2023-04-12T11:37:26.930Z,100.00
2023-04-12T11:39:57.337Z,100.00
2023-04-12T11:42:26.314Z,100.00
2023-04-12T11:44:59.763Z,100.00
2023-04-12T11:47:29.764Z,100.00
2023-04-12T11:49:59.311Z,100.00
2023-04-12T11:52:29.743Z,100.00
2023-04-12T11:54:58.843Z,100.00
2023-04-12T11:57:28.532Z,100.00
2023-04-12T11:59:58.562Z,100.00
2023-04-12T12:02:29.846Z,100.00
2023-04-12T12:04:58.487Z,100.00
2023-04-12T12:07:26.747Z,100.00
2023-04-12T12:09:54.994Z,100.00
2023-04-12T12:12:25.100Z,100.00
2023-04-12T12:14:52.784Z,100.00
2023-04-12T12:17:21.744Z,100.00
2023-04-12T12:19:49.397Z,100.00
2023-04-12T12:22:18.422Z,100.00
2023-04-12T12:24:48.041Z,100.00
2023-04-12T12:27:19.511Z,100.00
2023-04-12T12:29:50.782Z,100.00
2023-04-12T12:32:19.725Z,100.00
2023-04-12T12:34:56.442Z,100.00
2023-04-12T12:37:28.506Z,100.00
2023-04-12T12:40:17.820Z,100.00
2023-04-12T12:42:46.915Z,100.00
2023-04-12T12:45:15.314Z,100.00
2023-04-12T12:47:48.249Z,100.00
2023-04-12T12:50:18.361Z,100.00
2023-04-12T12:52:47.116Z,100.00
2023-04-12T12:55:15.173Z,100.00
2023-04-12T12:57:44.433Z,100.00
2023-04-12T13:00:16.649Z,100.00
2023-04-12T13:02:44.489Z,100.00
2023-04-12T13:05:13.204Z,100.00
2023-04-12T13:07:42.373Z,100.00
2023-04-12T13:10:10.329Z,100.00
2023-04-12T13:12:37.889Z,100.00
2023-04-12T13:15:20.979Z,100.00
2023-04-12T13:17:50.608Z,100.00
2023-04-12T13:20:18.276Z,100.00
2023-04-12T13:22:47.286Z,100.00
2023-04-12T13:25:14.920Z,100.00
2023-04-12T13:27:42.565Z,100.00
2023-04-12T13:30:11.003Z,100.00
2023-04-12T13:32:38.700Z,100.00
2023-04-12T13:35:07.067Z,100.00
2023-04-12T13:37:35.669Z,100.00
2023-04-12T13:40:05.138Z,100.00
2023-04-12T13:42:33.119Z,100.00
2023-04-12T13:45:01.434Z,100.00
2023-04-12T13:47:29.061Z,100.00
2023-04-12T13:49:56.582Z,100.00
2023-04-12T13:52:24.305Z,100.00
2023-04-12T13:54:51.911Z,100.00
2023-04-12T13:57:21.047Z,100.00
2023-04-12T13:59:48.659Z,100.00
2023-04-12T14:02:16.329Z,100.00
2023-04-12T14:04:51.743Z,99.80
2023-04-12T14:07:19.456Z,100.00
2023-04-12T14:09:48.446Z,100.00
2023-04-12T14:12:16.140Z,100.00
2023-04-12T14:14:45.141Z,100.00
2023-04-12T14:17:12.851Z,100.00
2023-04-12T14:19:40.815Z,100.00
2023-04-12T14:22:08.455Z,100.00
2023-04-12T14:24:36.751Z,100.00
2023-04-12T14:27:04.893Z,100.00
2023-04-12T14:29:32.814Z,100.00
2023-04-12T14:32:01.766Z,100.00
2023-04-12T14:34:30.985Z,100.00
2023-04-12T14:37:00.222Z,100.00
2023-04-12T14:39:27.938Z,100.00
2023-04-12T14:41:56.923Z,100.00
2023-04-12T14:44:26.235Z,100.00
2023-04-12T14:46:54.082Z,100.00
2023-04-12T14:49:23.142Z,100.00
2023-04-12T14:51:50.773Z,100.00
2023-04-12T14:54:18.390Z,99.17
2023-04-12T14:56:52.394Z,99.51
2023-04-12T14:59:21.625Z,100.00
2023-04-12T15:01:49.363Z,97.43
2023-04-12T15:04:17.248Z,96.46
2023-04-12T15:06:46.332Z,96.00
2023-04-12T15:09:15.656Z,96.00
2023-04-12T15:11:47.217Z,94.92
2023-04-12T15:14:18.056Z,94.10
2023-04-12T15:16:46.602Z,93.77
2023-04-12T15:19:19.876Z,95.02
2023-04-12T15:21:51.897Z,94.76
2023-04-12T15:24:19.743Z,95.88
2023-04-12T15:26:48.531Z,94.97
2023-04-12T15:29:16.604Z,92.69
2023-04-12T15:31:44.491Z,91.41
2023-04-12T15:34:13.289Z,90.88
2023-04-12T15:36:43.013Z,88.44
2023-04-12T15:39:12.641Z,89.56
2023-04-12T15:41:41.696Z,88.44
2023-04-12T15:44:11.856Z,88.28
2023-04-12T15:46:40.688Z,87.07
2023-04-12T15:49:09.064Z,89.16
2023-04-12T15:51:37.095Z,88.78
2023-04-12T15:54:06.541Z,88.10
2023-04-12T15:56:37.849Z,87.81
2023-04-12T15:59:05.853Z,87.67
2023-04-12T16:01:35.539Z,88.69
2023-04-12T16:04:03.483Z,89.29
2023-04-12T16:06:34.636Z,89.47
2023-04-12T16:09:04.400Z,88.70
2023-04-12T16:11:33.874Z,89.39
2023-04-12T16:14:02.848Z,89.50
2023-04-12T16:16:30.864Z,89.43
2023-04-12T16:19:00.017Z,90.38
2023-04-12T16:21:28.501Z,90.75
2023-04-12T16:23:56.039Z,90.21
2023-04-12T16:26:23.731Z,88.73
2023-04-12T16:28:53.255Z,88.15
2023-04-12T16:31:23.075Z,87.09
2023-04-12T16:33:51.142Z,87.63
2023-04-12T16:36:18.977Z,87.01
2023-04-12T16:38:46.710Z,85.85
2023-04-12T16:41:14.430Z,85.65
2023-04-12T16:43:44.773Z,85.75
2023-04-12T16:46:13.353Z,84.71
2023-04-12T16:48:42.712Z,84.42
2023-04-12T16:51:10.468Z,85.63
2023-04-12T16:53:38.102Z,84.65
2023-04-12T16:56:06.244Z,84.82
2023-04-12T16:58:33.978Z,84.16
2023-04-12T17:01:01.883Z,84.25
2023-04-12T17:03:30.160Z,83.65
2023-04-12T17:05:59.310Z,83.07
2023-04-12T17:08:26.884Z,82.38
2023-04-12T17:10:55.328Z,82.62
2023-04-12T17:13:23.137Z,83.61
2023-04-12T17:15:50.781Z,82.89
2023-04-12T17:18:18.395Z,80.30
2023-04-12T17:20:46.230Z,78.52
2023-04-12T17:23:16.578Z,78.09
2023-04-12T17:25:44.713Z,77.98
2023-04-12T17:28:13.002Z,78.97
2023-04-12T17:30:41.104Z,80.07
2023-04-12T17:33:09.432Z,82.09
2023-04-12T17:35:37.429Z,81.51
2023-04-12T17:38:05.081Z,81.79
2023-04-12T17:40:34.110Z,82.05
2023-04-12T17:43:01.847Z,83.24
2023-04-12T17:45:29.685Z,83.01
2023-04-12T17:47:57.299Z,81.85
2023-04-12T17:50:25.143Z,82.04
2023-04-12T17:52:52.797Z,81.39
2023-04-12T17:55:23.516Z,80.28
2023-04-12T17:57:53.166Z,79.93
2023-04-12T18:00:23.297Z,80.28
2023-04-12T18:02:51.379Z,80.63
2023-04-12T18:05:19.475Z,80.55
2023-04-12T18:07:47.098Z,80.92
2023-04-12T18:10:18.895Z,81.91
2023-04-12T18:12:48.129Z,82.78
2023-04-12T18:15:18.157Z,83.38
2023-04-12T18:17:45.926Z,83.79
2023-04-12T18:20:13.943Z,84.51
2023-04-12T18:22:42.206Z,85.35
2023-04-12T18:25:11.598Z,85.87
2023-04-12T18:27:39.256Z,86.36
2023-04-12T18:30:08.360Z,86.23
2023-04-12T18:32:37.391Z,86.48
2023-04-12T18:35:05.693Z,85.84
2023-04-12T18:37:33.351Z,80.55
2023-04-12T18:40:01.020Z,80.46
2023-04-12T18:42:28.638Z,81.63
2023-04-12T18:44:58.119Z,83.18
2023-04-12T18:47:26.972Z,85.24
2023-04-12T18:49:56.395Z,86.07
2023-04-12T18:52:23.995Z,86.46
2023-04-12T18:54:51.699Z,85.81
2023-04-12T18:57:19.330Z,86.96
2023-04-12T18:59:48.878Z,85.98
2023-04-12T19:02:18.113Z,86.91
2023-04-12T19:04:46.128Z,88.30
2023-04-12T19:07:15.433Z,87.88
2023-04-12T19:09:43.099Z,87.74
2023-04-12T19:12:10.647Z,88.32
2023-04-12T19:14:38.238Z,88.19
2023-04-12T19:17:05.800Z,88.98
2023-04-12T19:19:33.427Z,89.24
2023-04-12T19:22:01.077Z,89.00
2023-04-12T19:24:30.135Z,90.42
2023-04-12T19:26:57.743Z,91.90
2023-04-12T19:29:25.988Z,92.21
2023-04-12T19:31:53.816Z,91.48
2023-04-12T19:34:21.482Z,90.84
2023-04-12T19:36:49.550Z,90.85
2023-04-12T19:39:18.561Z,92.59
2023-04-12T19:41:49.023Z,92.40
2023-04-12T19:44:16.579Z,92.87
2023-04-12T19:46:44.246Z,92.68
2023-04-12T19:49:11.989Z,92.31
2023-04-12T19:51:39.801Z,92.53
2023-04-12T19:54:09.833Z,92.68
2023-04-12T19:56:37.667Z,93.71
2023-04-12T19:59:06.686Z,94.24
2023-04-12T20:01:43.036Z,93.88
2023-04-12T20:04:10.688Z,94.47
2023-04-12T20:06:38.691Z,94.89
2023-04-12T20:09:06.332Z,94.48
2023-04-12T20:11:33.943Z,94.93
2023-04-12T20:14:01.522Z,95.20
2023-04-12T20:16:31.250Z,95.01
2023-04-12T20:18:59.122Z,94.70
2023-04-12T20:21:27.721Z,94.60
2023-04-12T20:23:55.337Z,94.39
2023-04-12T20:26:23.012Z,93.41
2023-04-12T20:28:50.829Z,92.98
2023-04-12T20:31:19.489Z,93.23
2023-04-12T20:33:49.240Z,94.08
2023-04-12T20:36:18.018Z,94.32
2023-04-12T20:38:45.648Z,95.39
2023-04-12T20:41:13.289Z,95.78
2023-04-12T20:43:46.308Z,95.85
2023-04-12T20:46:16.802Z,95.68
2023-04-12T20:48:46.727Z,96.62
2023-04-12T20:51:16.316Z,96.24
2023-04-12T20:53:45.575Z,95.97
2023-04-12T20:56:13.208Z,96.52
2023-04-12T20:58:41.303Z,96.29
2023-04-12T21:01:14.410Z,95.69
2023-04-12T21:03:43.409Z,97.08
2023-04-12T21:06:11.628Z,97.03
2023-04-12T21:08:43.387Z,97.61
2023-04-12T21:11:11.249Z,97.19
2023-04-12T21:13:38.846Z,97.45
2023-04-12T21:16:07.933Z,96.48
2023-04-12T21:18:36.256Z,97.11
2023-04-12T21:21:03.915Z,96.82
2023-04-12T21:23:31.529Z,97.14
2023-04-12T21:26:02.412Z,97.60
2023-04-12T21:28:30.977Z,97.77
2023-04-12T21:30:59.107Z,98.23
2023-04-12T21:33:26.780Z,98.26
2023-04-12T21:35:55.064Z,97.55
2023-04-12T21:38:23.414Z,97.81
2023-04-12T21:40:51.258Z,98.00
2023-04-12T21:43:20.253Z,98.13
2023-04-12T21:45:47.910Z,98.04
2023-04-12T21:48:15.605Z,97.81
2023-04-12T21:50:43.212Z,97.50
2023-04-12T21:53:10.895Z,97.40
2023-04-12T21:55:39.019Z,96.90
2023-04-12T21:58:07.141Z,96.44
2023-04-12T22:00:37.161Z,95.73
2023-04-12T22:03:05.301Z,95.73
2023-04-12T22:05:33.280Z,96.13
2023-04-12T22:08:00.940Z,95.94
2023-04-12T22:10:29.221Z,95.38
2023-04-12T22:12:56.899Z,96.38
2023-04-12T22:15:26.096Z,95.44
2023-04-12T22:17:55.237Z,95.74
2023-04-12T22:20:22.915Z,95.53
2023-04-12T22:22:50.531Z,95.40
2023-04-12T22:25:18.434Z,95.69
2023-04-12T22:27:46.420Z,95.93
2023-04-12T22:30:14.732Z,95.24
2023-04-12T22:32:42.511Z,94.65
2023-04-12T22:35:12.166Z,94.50
2023-04-12T22:37:43.885Z,94.70
2023-04-12T22:40:13.437Z,94.72
2023-04-12T22:42:46.096Z,93.79
2023-04-12T22:45:14.710Z,94.45
2023-04-12T22:47:42.972Z,93.92
2023-04-12T22:50:16.415Z,94.32
2023-04-12T22:52:44.932Z,93.64
2023-04-12T22:55:13.870Z,93.49
2023-04-12T22:57:42.221Z,92.58
2023-04-12T23:00:15.774Z,92.97
2023-04-12T23:02:46.550Z,93.63
2023-04-12T23:05:17.627Z,93.23
2023-04-12T23:07:46.025Z,92.35
2023-04-12T23:10:14.366Z,92.86
2023-04-12T23:12:42.347Z,92.79
2023-04-12T23:15:12.592Z,92.18
2023-04-12T23:17:40.597Z,92.46
2023-04-12T23:20:13.119Z,93.32
2023-04-12T23:22:57.392Z,92.74
2023-04-12T23:25:29.189Z,91.97
2023-04-12T23:27:57.484Z,92.55
2023-04-12T23:30:29.807Z,92.58
2023-04-12T23:32:58.422Z,93.14
2023-04-12T23:35:26.184Z,93.45
2023-04-12T23:37:56.093Z,92.25
2023-04-12T23:40:24.333Z,91.86
2023-04-12T23:42:52.135Z,91.55
2023-04-12T23:45:19.981Z,91.38
2023-04-12T23:47:47.645Z,90.76
2023-04-12T23:50:15.421Z,90.86
2023-04-12T23:52:43.066Z,91.41
2023-04-12T23:55:12.054Z,91.10
2023-04-12T23:57:39.653Z,90.85
